Time;durP1;ratioP1;P1;durP2;ratioP2;P2;SDS_P1;SDS_P2;PMS_P1;PMS_P2;Temp;Humidity;BMP_temperature;BMP_pressure;BME280_temperature;BME280_humidity;BME280_pressure;Samples;Min_cycle;Max_cycle;Signal;HPM_P1;HPM_P2
2022/01/06 00:01:04;;;;;;;21.77;5.70;;;;;;;3.99;88.09;101059.00;5074275;28;20056;-64
2022/01/06 00:03:31;;;;;;;31.42;5.75;;;;;;;3.90;88.45;101061.44;5073524;28;20072;-65
2022/01/06 00:06:04;;;;;;;18.70;4.63;;;;;;;4.02;87.40;101068.44;5073136;28;20060;-65
2022/01/06 00:08:33;;;;;;;24.63;4.85;;;;;;;4.02;87.60;101064.06;5041364;28;20050;-65
2022/01/06 00:11:00;;;;;;;18.63;4.80;;;;;;;3.96;87.79;101058.38;5057132;28;20051;-65
2022/01/06 00:13:47;;;;;;;25.45;5.82;;;;;;;3.91;87.72;101066.56;5056968;28;20044;-65
2022/01/06 00:24:28;;;;;;;26.13;5.80;;;;;;;3.84;88.27;101079.25;5130071;28;20118;-65
2022/01/06 00:26:56;;;;;;;31.08;6.45;;;;;;;3.76;89.31;101083.31;5129975;28;20044;-65
2022/01/06 00:29:24;;;;;;;26.77;7.63;;;;;;;3.83;88.64;101079.34;5131030;27;20437;-65
2022/01/06 00:31:51;;;;;;;36.58;10.55;;;;;;;3.78;88.59;101084.94;5111309;28;20488;-65
2022/01/06 00:34:18;;;;;;;37.72;11.02;;;;;;;3.75;89.03;101087.75;5131279;27;20127;-65
2022/01/06 00:36:45;;;;;;;28.20;9.40;;;;;;;3.84;88.51;101087.13;5130664;27;20407;-65
2022/01/06 00:39:12;;;;;;;30.98;8.60;;;;;;;3.91;87.58;101098.06;5112909;28;20050;-65
2022/01/06 00:41:39;;;;;;;20.58;6.80;;;;;;;3.79;88.30;101089.22;5129682;28;20036;-65
2022/01/06 00:44:06;;;;;;;29.25;6.45;;;;;;;3.70;88.33;101102.13;5129662;28;20043;-65
2022/01/06 00:46:35;;;;;;;36.28;6.93;;;;;;;3.67;87.87;101105.75;5130552;27;20074;-65
2022/01/06 00:49:03;;;;;;;30.73;9.43;;;;;;;3.80;87.79;101106.66;5129380;28;20052;-65
2022/01/06 00:51:31;;;;;;;38.38;15.63;;;;;;;3.73;87.36;101112.38;5130574;28;20039;-65
2022/01/06 00:53:57;;;;;;;35.70;17.77;;;;;;;3.67;87.92;101111.00;5129401;28;20035;-65
2022/01/06 00:56:24;;;;;;;44.58;19.40;;;;;;;3.61;87.77;101111.44;5112442;28;20450;-65
2022/01/06 00:58:51;;;;;;;39.67;20.08;;;;;;;3.71;87.59;101114.28;5122888;28;20051;-65
2022/01/06 01:01:18;;;;;;;41.80;16.00;;;;;;;3.64;87.22;101119.09;5108620;28;20097;-65
2022/01/06 01:03:45;;;;;;;31.70;15.48;;;;;;;3.59;87.38;101108.06;5106993;28;20134;-65
2022/01/06 01:06:12;;;;;;;40.33;13.88;;;;;;;3.53;87.77;101108.44;5109824;28;20044;-65
2022/01/06 01:08:38;;;;;;;33.55;11.48;;;;;;;3.44;87.93;101110.72;5109802;28;20047;-65
2022/01/06 01:11:06;;;;;;;24.63;7.28;;;;;;;3.39;87.23;101102.31;5091919;28;20032;-65
2022/01/06 01:13:37;;;;;;;28.48;6.28;;;;;;;3.43;87.43;101108.22;5108503;28;20052;-65
2022/01/06 01:16:19;;;;;;;25.80;6.75;;;;;;;3.30;88.25;101116.03;5116590;28;20036;-65
2022/01/06 01:18:48;;;;;;;27.20;9.45;;;;;;;3.32;87.77;101116.75;5129025;28;20067;-64
2022/01/06 01:21:17;;;;;;;29.20;10.98;;;;;;;3.43;86.95;101131.81;5128229;28;20066;-65
2022/01/06 01:23:44;;;;;;;31.42;10.82;;;;;;;3.39;87.24;101125.91;5129108;28;20135;-65
2022/01/06 01:26:11;;;;;;;26.30;9.15;;;;;;;3.41;87.09;101125.81;5129935;27;20043;-65
2022/01/06 01:28:44;;;;;;;32.80;8.02;;;;;;;3.34;87.49;101121.91;5105614;28;20063;-65
2022/01/06 01:33:51;;;;;;;24.48;5.00;;;;;;;3.26;87.77;101120.63;5129897;27;20371;-66
2022/01/06 01:36:19;;;;;;;19.92;4.13;;;;;;;3.40;87.27;101126.75;5129929;28;20043;-64
2022/01/06 01:38:45;;;;;;;22.30;4.60;;;;;;;3.24;87.52;101129.53;5130043;27;20066;-63
2022/01/06 01:41:12;;;;;;;22.23;4.15;;;;;;;3.24;87.42;101126.91;5117224;28;20050;-63
2022/01/06 01:43:40;;;;;;;23.90;4.47;;;;;;;3.34;87.02;101135.03;5129835;28;20088;-64
2022/01/06 01:46:14;;;;;;;23.92;4.28;;;;;;;3.27;87.48;101134.56;5131065;27;20078;-64
2022/01/06 01:48:48;;;;;;;22.35;4.07;;;;;;;3.17;88.22;101128.25;5130076;28;20051;-64
2022/01/06 01:51:15;;;;;;;28.13;4.00;;;;;;;3.18;88.41;101135.97;5130977;27;20071;-64
2022/01/06 01:53:44;;;;;;;24.50;3.60;;;;;;;3.07;88.44;101155.03;5131189;27;20061;-64
2022/01/06 01:56:12;;;;;;;25.10;4.35;;;;;;;3.34;86.56;101154.22;5131666;27;20043;-64
2022/01/06 01:58:40;;;;;;;26.40;3.60;;;;;;;3.27;87.06;101158.16;5136488;27;20036;-63
2022/01/06 02:01:08;;;;;;;23.67;4.85;;;;;;;3.30;86.62;101160.59;5131411;28;20054;-64
2022/01/06 02:03:35;;;;;;;26.73;4.13;;;;;;;3.25;87.48;101162.66;5129003;27;20036;-64
2022/01/06 02:06:02;;;;;;;24.63;4.20;;;;;;;3.21;86.34;101166.44;5129272;27;20047;-64
2022/01/06 02:08:30;;;;;;;23.13;3.45;;;;;;;3.36;85.96;101162.81;5130541;27;20506;-65
2022/01/06 02:10:57;;;;;;;23.20;3.35;;;;;;;3.45;85.83;101153.53;5129148;28;20088;-64
2022/01/06 02:13:28;;;;;;;24.25;3.75;;;;;;;3.46;85.53;101168.34;5129385;28;20044;-64
2022/01/06 02:15:58;;;;;;;32.22;3.60;;;;;;;3.24;86.36;101164.44;5130185;27;20048;-64
2022/01/06 02:18:26;;;;;;;16.98;3.13;;;;;;;3.18;86.76;101177.94;5130522;27;20086;-64
2022/01/06 02:20:53;;;;;;;20.60;3.60;;;;;;;3.32;85.94;101161.34;5128825;27;20054;-64
2022/01/06 02:23:22;;;;;;;24.20;3.70;;;;;;;3.39;85.83;101167.06;5129438;28;20118;-64
2022/01/06 02:25:49;;;;;;;15.60;3.50;;;;;;;3.35;85.35;101161.16;5128938;28;20039;-64
2022/01/06 02:28:18;;;;;;;21.35;4.88;;;;;;;3.21;86.19;101167.25;5129294;28;20058;-64
2022/01/06 02:30:49;;;;;;;24.23;4.90;;;;;;;3.19;85.83;101156.03;5112143;28;20575;-64
2022/01/06 02:33:16;;;;;;;22.58;5.22;;;;;;;3.07;86.71;101168.13;5128397;28;20044;-64
2022/01/06 02:35:43;;;;;;;28.35;5.93;;;;;;;3.07;86.55;101169.91;5128864;28;20040;-64
2022/01/06 02:38:11;;;;;;;35.95;6.50;;;;;;;3.14;85.62;101181.69;5128221;27;20122;-64
2022/01/06 02:40:39;;;;;;;31.95;5.97;;;;;;;3.26;85.71;101167.81;5128458;28;20043;-64
2022/01/06 02:43:07;;;;;;;30.35;6.13;;;;;;;3.20;84.85;101169.97;5127280;28;20046;-64
2022/01/06 02:45:36;;;;;;;31.88;6.22;;;;;;;3.24;85.35;101174.94;5103742;28;20169;-64
2022/01/06 02:48:08;;;;;;;43.90;7.72;;;;;;;3.18;85.25;101177.94;5095508;28;20044;-64
2022/01/06 02:50:43;;;;;;;31.10;9.48;;;;;;;3.00;85.52;101177.31;5095230;28;20501;-64
2022/01/06 02:53:11;;;;;;;33.50;10.32;;;;;;;3.20;85.22;101180.47;5094468;28;20115;-64
2022/01/06 02:55:52;;;;;;;38.25;8.48;;;;;;;3.17;85.28;101178.88;5094357;28;20044;-64
2022/01/06 02:58:37;;;;;;;27.00;7.28;;;;;;;3.22;85.52;101183.81;5095554;28;20051;-65
2022/01/06 03:01:04;;;;;;;29.83;7.07;;;;;;;3.26;85.51;101188.78;5104115;28;20036;-64
2022/01/06 03:03:30;;;;;;;28.60;6.25;;;;;;;3.38;83.98;101199.44;5113121;28;20067;-65
2022/01/06 03:05:57;;;;;;;24.55;5.43;;;;;;;3.18;84.80;101187.59;5097580;28;20047;-64
2022/01/06 03:08:26;;;;;;;26.15;4.78;;;;;;;3.30;85.21;101199.09;5097824;28;20461;-64
2022/01/06 03:10:54;;;;;;;26.88;5.28;;;;;;;3.16;85.26;101198.16;5114640;28;20077;-64
2022/01/06 03:13:20;;;;;;;27.70;4.75;;;;;;;3.26;84.53;101203.69;5115626;27;20032;-64
2022/01/06 03:15:47;;;;;;;26.05;4.50;;;;;;;3.26;84.93;101207.16;5112830;27;20096;-64
2022/01/06 03:18:14;;;;;;;22.10;4.85;;;;;;;3.23;84.67;101204.72;5132831;27;20507;-65
2022/01/06 03:20:40;;;;;;;30.65;4.50;;;;;;;3.08;84.68;101203.06;5134923;27;20515;-64
2022/01/06 03:23:07;;;;;;;23.42;3.72;;;;;;;3.16;85.29;101210.44;5117375;27;20031;-64
2022/01/06 03:25:34;;;;;;;23.75;4.32;;;;;;;3.12;84.81;101207.16;5100768;27;20121;-64
2022/01/06 03:28:00;;;;;;;17.30;4.22;;;;;;;3.00;85.12;101207.91;5135995;27;20109;-64
2022/01/06 03:30:27;;;;;;;25.73;4.30;;;;;;;3.09;85.16;101209.97;5136072;27;20039;-65
2022/01/06 03:32:54;;;;;;;23.17;5.13;;;;;;;2.98;86.09;101209.78;5135603;27;20054;-64
2022/01/06 03:35:24;;;;;;;26.15;5.07;;;;;;;2.99;85.58;101206.25;5132881;27;20491;-64
2022/01/06 03:37:51;;;;;;;22.77;6.18;;;;;;;3.02;85.31;101209.50;5134524;27;20122;-64
2022/01/06 03:40:18;;;;;;;20.88;5.82;;;;;;;3.03;86.01;101212.97;5134543;27;20043;-64
2022/01/06 03:42:45;;;;;;;25.48;5.45;;;;;;;3.01;86.07;101225.31;5100837;27;20514;-64
2022/01/06 03:45:16;;;;;;;25.42;5.82;;;;;;;3.08;85.98;101218.78;5114252;27;20051;-63
2022/01/06 03:47:43;;;;;;;25.27;5.43;;;;;;;3.01;86.04;101226.16;5115143;28;20047;-64
2022/01/06 03:50:12;;;;;;;24.45;6.03;;;;;;;3.15;85.64;101232.38;5113947;28;20047;-64
2022/01/06 03:52:40;;;;;;;24.70;5.18;;;;;;;3.15;85.48;101241.06;5113257;28;20134;-64
2022/01/06 03:55:09;;;;;;;22.95;5.65;;;;;;;3.17;84.79;101236.56;5114076;28;20557;-64
2022/01/06 03:57:37;;;;;;;24.42;4.55;;;;;;;2.94;85.80;101237.94;5113772;28;20047;-65
2022/01/06 04:00:07;;;;;;;23.67;4.97;;;;;;;3.10;85.38;101234.41;5113750;28;20039;-63
2022/01/06 04:02:49;;;;;;;18.00;3.90;;;;;;;2.97;86.12;101236.94;5091768;27;20373;-64
2022/01/06 04:05:16;;;;;;;23.40;4.00;;;;;;;2.96;86.04;101233.47;5091035;28;20044;-65
2022/01/06 04:07:42;;;;;;;28.17;4.20;;;;;;;2.80;87.30;101245.78;5089894;28;20040;-65
2022/01/06 04:10:10;;;;;;;28.45;3.90;;;;;;;3.08;85.59;101245.81;5072659;28;20063;-65
2022/01/06 04:12:38;;;;;;;27.00;3.70;;;;;;;3.02;85.46;101251.44;5088971;28;20439;-65
2022/01/06 04:15:10;;;;;;;35.55;4.05;;;;;;;3.04;85.40;101249.56;5072450;28;20047;-65
2022/01/06 04:17:38;;;;;;;25.08;3.63;;;;;;;2.94;86.01;101247.59;5088724;28;20045;-65
2022/01/06 04:20:07;;;;;;;26.92;4.30;;;;;;;2.76;86.21;101242.50;5088893;28;20067;-65
2022/01/06 04:22:35;;;;;;;28.13;3.80;;;;;;;3.04;84.35;101257.44;5072382;28;20501;-65
2022/01/06 04:25:02;;;;;;;25.92;3.63;;;;;;;2.94;85.82;101258.91;5088743;28;20040;-65
2022/01/06 04:27:29;;;;;;;27.30;3.72;;;;;;;2.94;85.38;101266.78;5088996;28;20044;-65
2022/01/06 04:29:55;;;;;;;21.95;3.60;;;;;;;2.93;84.94;101270.34;5088926;28;20048;-65
2022/01/06 04:32:22;;;;;;;25.15;3.78;;;;;;;2.81;85.45;101277.16;5087919;28;20032;-65
2022/01/06 04:34:49;;;;;;;32.00;4.47;;;;;;;2.85;84.66;101268.16;5089479;28;20051;-65
2022/01/06 04:37:16;;;;;;;26.90;3.35;;;;;;;2.69;85.34;101273.50;5088625;28;20064;-65
2022/01/06 04:39:42;;;;;;;26.70;4.80;;;;;;;2.73;85.70;101268.91;5071955;28;20063;-65
2022/01/06 04:42:09;;;;;;;17.30;3.50;;;;;;;2.64;85.63;101265.06;5089441;28;20041;-65
2022/01/06 04:44:36;;;;;;;22.25;3.60;;;;;;;2.71;85.85;101272.53;5089380;28;20048;-65
2022/01/06 04:47:03;;;;;;;26.10;4.10;;;;;;;2.68;85.58;101279.66;5088470;28;20489;-65
2022/01/06 04:49:29;;;;;;;21.13;3.65;;;;;;;2.94;84.18;101285.13;5071555;28;20054;-65
2022/01/06 04:51:56;;;;;;;33.05;4.40;;;;;;;2.72;85.11;101282.09;5088547;28;20055;-65
2022/01/06 04:54:23;;;;;;;32.08;4.45;;;;;;;2.73;85.26;101282.03;5089278;28;20044;-65
2022/01/06 04:56:50;;;;;;;28.33;4.38;;;;;;;2.64;86.21;101283.41;5088257;28;20037;-65
2022/01/06 04:59:18;;;;;;;23.25;4.18;;;;;;;2.57;85.67;101289.91;5087942;28;20520;-64
2022/01/06 05:01:45;;;;;;;20.42;4.50;;;;;;;2.64;86.58;101285.19;5088978;28;20509;-65
2022/01/06 05:04:12;;;;;;;33.20;4.10;;;;;;;2.55;86.15;101285.69;5087444;28;20051;-64
2022/01/06 05:06:39;;;;;;;27.30;4.10;;;;;;;2.69;85.31;101299.69;5071223;28;20048;-65
2022/01/06 05:09:05;;;;;;;22.60;3.78;;;;;;;2.61;86.18;101290.59;5078422;28;20383;-65
2022/01/06 05:11:32;;;;;;;28.80;4.15;;;;;;;2.72;85.63;101303.06;5087849;28;20036;-64
2022/01/06 05:13:59;;;;;;;35.38;5.10;;;;;;;2.62;85.71;101303.59;5075264;28;20036;-64
2022/01/06 05:16:25;;;;;;;33.20;4.20;;;;;;;2.49;86.21;101307.84;5074748;28;20049;-64
2022/01/06 05:18:52;;;;;;;35.03;4.60;;;;;;;2.67;85.41;101300.69;5070172;28;20043;-64
2022/01/06 05:21:19;;;;;;;20.23;3.70;;;;;;;2.53;86.15;101311.13;5070970;28;20036;-64
2022/01/06 05:23:46;;;;;;;23.77;4.13;;;;;;;2.45;86.01;101308.94;5054975;28;20568;-64
2022/01/06 05:26:12;;;;;;;22.15;3.90;;;;;;;2.46;86.07;101316.72;5055257;28;20040;-64
2022/01/06 05:28:40;;;;;;;29.15;5.07;;;;;;;2.44;85.99;101321.22;5053978;28;20037;-64
2022/01/06 05:31:07;;;;;;;23.30;4.15;;;;;;;2.67;84.79;101317.28;5052159;28;20041;-64
2022/01/06 05:33:34;;;;;;;26.90;4.90;;;;;;;2.57;84.76;101326.59;5054068;28;20065;-64
2022/01/06 05:36:00;;;;;;;20.15;3.95;;;;;;;2.55;84.86;101335.44;5053781;28;20512;-64
2022/01/06 05:38:27;;;;;;;21.38;4.53;;;;;;;2.61;84.59;101330.72;5055114;28;20041;-64
2022/01/06 05:40:54;;;;;;;21.42;4.40;;;;;;;2.56;84.81;101338.00;5060552;28;20036;-64
2022/01/06 05:43:21;;;;;;;22.63;4.57;;;;;;;2.47;85.01;101330.66;5073969;28;20098;-64
2022/01/06 05:45:51;;;;;;;20.88;5.18;;;;;;;2.45;85.54;101337.75;5057140;28;20036;-64
2022/01/06 05:48:18;;;;;;;30.33;5.18;;;;;;;2.52;84.94;101328.63;5041021;28;20047;-64
2022/01/06 05:50:48;;;;;;;23.42;4.88;;;;;;;2.54;84.78;101337.22;5073843;28;20043;-64
2022/01/06 05:53:15;;;;;;;22.30;4.82;;;;;;;2.50;84.64;101344.41;5074828;28;20040;-64
2022/01/06 05:55:43;;;;;;;24.60;4.50;;;;;;;2.34;84.71;101346.22;5073298;28;20521;-64
2022/01/06 05:58:10;;;;;;;23.65;4.70;;;;;;;2.30;85.81;101352.56;5073740;28;20059;-64
2022/01/06 06:00:38;;;;;;;25.30;5.07;;;;;;;2.27;86.15;101360.59;5073116;28;20131;-64
2022/01/06 06:03:05;;;;;;;31.15;5.88;;;;;;;2.50;84.89;101361.91;5074473;28;20037;-64
2022/01/06 06:05:32;;;;;;;25.90;5.22;;;;;;;2.36;85.79;101367.09;5065089;28;20091;-64
2022/01/06 06:07:59;;;;;;;28.58;5.40;;;;;;;2.18;85.77;101359.31;5074059;28;20066;-64
2022/01/06 06:10:26;;;;;;;27.77;5.70;;;;;;;2.48;85.49;101369.03;5056859;28;20063;-64
2022/01/06 06:12:53;;;;;;;22.90;5.13;;;;;;;2.39;85.19;101380.03;5074355;28;20036;-64
2022/01/06 06:15:21;;;;;;;24.33;5.03;;;;;;;2.24;85.82;101382.56;5042471;28;20531;-64
2022/01/06 06:17:48;;;;;;;23.02;6.20;;;;;;;2.43;85.07;101382.38;5081161;28;20045;-64
2022/01/06 06:20:14;;;;;;;23.35;7.40;;;;;;;2.20;86.46;101390.66;5074090;28;20067;-64
2022/01/06 06:22:41;;;;;;;27.83;7.00;;;;;;;2.19;86.15;101395.03;5056298;28;20440;-64
2022/01/06 06:25:08;;;;;;;37.85;7.70;;;;;;;2.30;85.78;101386.59;5072046;28;20036;-64
2022/01/06 06:27:36;;;;;;;25.02;7.32;;;;;;;2.41;85.37;101396.47;5056555;28;20048;-64
2022/01/06 06:30:04;;;;;;;29.48;6.60;;;;;;;2.35;84.93;101392.44;5073978;28;20043;-64
2022/01/06 06:32:33;;;;;;;22.58;6.05;;;;;;;2.25;86.03;101393.88;5073976;28;20094;-64
2022/01/06 06:35:00;;;;;;;25.23;6.00;;;;;;;2.26;85.49;101401.63;5054385;28;20056;-64
2022/01/06 06:37:27;;;;;;;27.48;5.90;;;;;;;2.25;85.61;101402.56;5072648;28;20048;-64
2022/01/06 06:39:54;;;;;;;23.40;6.50;;;;;;;2.40;85.28;101405.25;5052648;28;20424;-64
2022/01/06 06:42:21;;;;;;;33.25;7.45;;;;;;;2.23;85.33;101406.19;5053565;28;20037;-64
2022/01/06 06:44:47;;;;;;;28.77;7.80;;;;;;;2.27;86.00;101405.09;5052212;28;20120;-64
2022/01/06 06:47:14;;;;;;;27.42;8.20;;;;;;;2.19;85.91;101420.38;5052819;28;20078;-65
2022/01/06 06:49:41;;;;;;;21.20;8.98;;;;;;;2.09;85.96;101413.03;5053470;28;20397;-64
2022/01/06 06:52:08;;;;;;;24.63;8.05;;;;;;;2.10;86.20;101417.31;5052798;28;20037;-64
2022/01/06 06:54:34;;;;;;;27.90;8.38;;;;;;;2.26;85.69;101421.75;5053578;28;20132;-64
2022/01/06 06:57:02;;;;;;;31.38;7.97;;;;;;;2.03;86.29;101422.97;5052527;28;20049;-64
2022/01/06 06:59:29;;;;;;;26.08;6.95;;;;;;;2.04;86.24;101429.91;5052430;28;20041;-64
2022/01/06 07:01:56;;;;;;;23.73;6.50;;;;;;;2.25;85.55;101435.75;5069867;28;20055;-64
2022/01/06 07:04:23;;;;;;;26.98;7.00;;;;;;;2.09;86.43;101446.19;5053693;28;20124;-64
2022/01/06 07:07:11;;;;;;;28.38;6.80;;;;;;;2.16;85.98;101449.34;5058783;28;20040;-64
2022/01/06 07:09:37;;;;;;;27.85;8.80;;;;;;;2.14;85.99;101449.41;5072004;28;20102;-64
2022/01/06 07:12:05;;;;;;;29.33;10.75;;;;;;;2.16;86.31;101454.56;5072060;28;20037;-64
2022/01/06 07:14:31;;;;;;;34.17;12.10;;;;;;;2.18;86.42;101453.56;5071944;28;20094;-64
2022/01/06 07:16:58;;;;;;;34.60;11.80;;;;;;;2.22;86.24;101454.25;5072995;28;20051;-65
2022/01/06 07:19:25;;;;;;;35.78;10.20;;;;;;;2.18;85.97;101457.94;5083583;28;20523;-64
2022/01/06 07:21:52;;;;;;;34.13;10.25;;;;;;;2.00;86.85;101451.91;5075659;28;20447;-65
2022/01/06 07:24:19;;;;;;;34.38;10.43;;;;;;;2.06;86.72;101457.69;5092847;28;20040;-65
2022/01/06 07:26:46;;;;;;;28.02;11.10;;;;;;;2.10;86.31;101466.22;5092152;28;20040;-65
2022/01/06 07:29:13;;;;;;;41.45;11.82;;;;;;;2.09;86.90;101468.00;5075180;28;20056;-65
2022/01/06 07:31:39;;;;;;;42.35;12.98;;;;;;;2.18;86.07;101477.13;5089911;28;20036;-65
2022/01/06 07:34:06;;;;;;;45.30;12.38;;;;;;;2.17;86.51;101477.22;5075286;28;20051;-65
2022/01/06 07:36:33;;;;;;;37.67;10.25;;;;;;;2.18;85.81;101484.97;5092614;28;20511;-65
2022/01/06 07:39:00;;;;;;;37.90;9.55;;;;;;;2.18;86.41;101486.75;5077198;28;20501;-65
2022/01/06 07:41:26;;;;;;;29.95;6.85;;;;;;;2.10;86.23;101482.75;5071619;28;20404;-64
2022/01/06 07:43:53;;;;;;;30.73;6.20;;;;;;;2.25;86.23;101495.97;5055095;28;20055;-65
2022/01/06 07:46:21;;;;;;;27.25;6.15;;;;;;;2.19;86.26;101498.94;5071371;28;20513;-65
2022/01/06 07:48:55;;;;;;;25.13;5.65;;;;;;;2.11;87.16;101505.41;5072734;28;20040;-65
2022/01/06 07:51:23;;;;;;;32.50;6.43;;;;;;;2.24;85.92;101508.22;5039509;28;20045;-65
2022/01/06 07:53:50;;;;;;;33.22;6.75;;;;;;;2.26;86.20;101514.22;5071539;28;20043;-64
2022/01/06 07:56:17;;;;;;;26.50;6.07;;;;;;;2.09;86.65;101511.63;5054746;28;20135;-64
2022/01/06 07:58:45;;;;;;;31.00;6.53;;;;;;;2.13;87.18;101514.94;5071472;28;20451;-65
2022/01/06 08:01:13;;;;;;;20.65;5.90;;;;;;;2.15;86.54;101519.19;5072125;28;20079;-65
2022/01/06 08:03:42;;;;;;;24.85;5.75;;;;;;;2.30;86.04;101534.06;5023231;28;20048;-64
2022/01/06 08:06:10;;;;;;;26.25;5.60;;;;;;;2.24;85.92;101537.03;5038424;28;20144;-65
2022/01/06 08:08:37;;;;;;;32.90;6.10;;;;;;;2.18;86.89;101526.84;5062105;28;20510;-65
2022/01/06 08:11:04;;;;;;;32.42;5.68;;;;;;;2.34;85.32;101520.81;5054706;28;20046;-65
2022/01/06 08:13:31;;;;;;;28.52;8.10;;;;;;;2.38;85.68;101533.66;5054867;28;20120;-65
2022/01/06 08:15:58;;;;;;;27.10;7.50;;;;;;;2.28;86.22;101538.53;5071010;28;20043;-65
2022/01/06 08:18:25;;;;;;;35.47;6.93;;;;;;;2.29;85.85;101534.16;5071271;28;20044;-65
2022/01/06 08:20:52;;;;;;;30.75;7.25;;;;;;;2.30;85.80;101534.06;5071259;28;20044;-64
2022/01/06 08:23:18;;;;;;;25.25;7.15;;;;;;;2.28;86.52;101530.69;5071280;28;20043;-64
2022/01/06 08:25:45;;;;;;;32.95;6.85;;;;;;;2.36;86.53;101542.53;5072399;28;20040;-64
2022/01/06 08:28:12;;;;;;;27.65;6.32;;;;;;;2.30;85.90;101541.94;5024932;28;20139;-65
2022/01/06 08:30:39;;;;;;;27.70;6.88;;;;;;;2.36;86.28;101556.47;5053422;28;20477;-64
2022/01/06 08:33:06;;;;;;;29.33;7.55;;;;;;;2.39;86.11;101560.72;5072249;28;20041;-65
2022/01/06 08:35:33;;;;;;;34.65;7.00;;;;;;;2.64;84.55;101555.00;5054665;28;20405;-65
2022/01/06 08:37:59;;;;;;;20.77;6.60;;;;;;;2.49;85.42;101564.50;5064650;28;20045;-65
2022/01/06 08:40:26;;;;;;;33.97;7.25;;;;;;;2.54;85.51;101562.50;5054375;28;20049;-65
2022/01/06 08:42:53;;;;;;;26.38;6.90;;;;;;;2.75;84.71;101568.38;5051952;28;20528;-65
2022/01/06 08:45:20;;;;;;;36.08;7.60;;;;;;;2.72;84.86;101570.31;5050947;28;20409;-65
2022/01/06 08:47:47;;;;;;;39.20;13.77;;;;;;;2.70;85.89;101567.78;5053007;28;20041;-65
2022/01/06 08:50:16;;;;;;;34.40;9.52;;;;;;;2.59;85.33;101568.34;5071400;28;20049;-65
2022/01/06 08:52:43;;;;;;;34.10;7.97;;;;;;;2.81;85.38;101568.03;5055613;28;20045;-65
2022/01/06 08:55:10;;;;;;;26.05;7.10;;;;;;;2.71;85.12;101563.38;5054658;28;20045;-64
2022/01/06 08:57:37;;;;;;;34.50;8.40;;;;;;;2.81;84.44;101573.28;5054497;28;20048;-65
2022/01/06 09:00:08;;;;;;;36.97;7.93;;;;;;;2.74;84.76;101568.44;5072695;28;20098;-65
2022/01/06 09:02:35;;;;;;;29.48;7.63;;;;;;;2.79;85.30;101579.53;5074458;28;20548;-65
2022/01/06 09:05:06;;;;;;;30.58;9.00;;;;;;;2.80;85.55;101586.44;5073608;28;20037;-65
2022/01/06 09:07:34;;;;;;;37.00;9.55;;;;;;;2.85;85.59;101587.06;5058458;28;20051;-65
2022/01/06 09:10:01;;;;;;;25.10;8.93;;;;;;;2.91;85.28;101588.50;5074682;28;20062;-65
2022/01/06 09:12:28;;;;;;;30.27;9.85;;;;;;;2.89;85.26;101583.31;5057721;28;20131;-65
2022/01/06 09:14:55;;;;;;;34.15;9.63;;;;;;;2.99;84.87;101588.94;5074278;28;20044;-64
2022/01/06 09:17:22;;;;;;;30.10;8.80;;;;;;;3.10;84.47;101589.19;5074359;28;20390;-66
2022/01/06 09:19:49;;;;;;;35.92;9.70;;;;;;;3.10;83.95;101585.72;5082847;28;20044;-65
2022/01/06 09:22:16;;;;;;;34.45;8.93;;;;;;;3.19;83.93;101593.91;5085592;28;20040;-65
2022/01/06 09:24:43;;;;;;;32.78;10.32;;;;;;;3.36;82.71;101594.75;5065256;28;20070;-65
2022/01/06 09:27:09;;;;;;;28.08;10.35;;;;;;;3.25;83.16;101596.19;5075422;28;20040;-65
2022/01/06 09:29:36;;;;;;;32.47;10.27;;;;;;;3.25;83.31;101595.34;5075010;28;20052;-65
2022/01/06 09:32:04;;;;;;;33.78;9.70;;;;;;;3.28;83.44;101592.56;5057609;28;20618;-64
2022/01/06 09:34:30;;;;;;;36.65;10.45;;;;;;;3.36;82.93;101602.63;5073098;28;20159;-65
2022/01/06 09:36:57;;;;;;;29.45;10.95;;;;;;;3.24;83.45;101585.81;5074014;28;20165;-65
2022/01/06 09:39:24;;;;;;;33.13;10.85;;;;;;;3.25;83.42;101596.19;5057182;28;20060;-65
2022/01/06 09:41:51;;;;;;;33.13;11.13;;;;;;;3.27;83.66;101601.34;5057189;28;20052;-64
2022/01/06 09:44:19;;;;;;;30.15;11.05;;;;;;;3.31;83.85;101608.13;5041088;28;20048;-64
2022/01/06 09:47:02;;;;;;;32.28;11.45;;;;;;;3.28;83.42;101612.69;5074719;28;20131;-65
2022/01/06 09:49:29;;;;;;;39.00;11.80;;;;;;;3.30;82.87;101614.28;5073516;28;20044;-64
2022/01/06 09:51:56;;;;;;;32.00;12.30;;;;;;;3.28;83.98;101604.84;5074920;28;20049;-64
2022/01/06 09:54:23;;;;;;;37.88;13.27;;;;;;;3.43;84.14;101612.66;5074689;28;20041;-64
2022/01/06 09:56:49;;;;;;;32.80;11.60;;;;;;;3.48;84.27;101614.22;5073408;28;20493;-64
2022/01/06 09:59:16;;;;;;;29.95;11.85;;;;;;;3.40;83.77;101612.84;5074409;28;20067;-64
2022/01/06 10:01:43;;;;;;;31.80;12.23;;;;;;;3.53;83.33;101615.63;5039838;28;20052;-64
2022/01/06 10:04:28;;;;;;;30.73;11.18;;;;;;;3.60;83.12;101616.97;5022622;28;20127;-64
2022/01/06 10:07:06;;;;;;;39.92;11.50;;;;;;;3.67;81.38;101614.81;5073929;28;20041;-63
2022/01/06 10:09:35;;;;;;;27.67;10.57;;;;;;;3.64;81.82;101621.09;5073250;28;20420;-64
2022/01/06 10:12:08;;;;;;;26.95;11.38;;;;;;;3.75;81.34;101627.53;5073017;28;20048;-64
2022/01/06 10:14:45;;;;;;;33.88;11.27;;;;;;;3.94;81.79;101627.31;5073919;28;20080;-63
2022/01/06 10:17:15;;;;;;;36.92;12.40;;;;;;;3.74;81.60;101629.28;5057483;28;20048;-64
2022/01/06 10:19:44;;;;;;;29.25;11.25;;;;;;;3.56;82.47;101625.94;5072293;28;20409;-63
2022/01/06 10:22:14;;;;;;;34.35;12.05;;;;;;;3.62;82.70;101622.97;5073759;28;20044;-64
2022/01/06 10:24:44;;;;;;;34.70;11.75;;;;;;;3.69;82.27;101627.88;5071534;28;20049;-64
2022/01/06 10:27:13;;;;;;;36.95;13.45;;;;;;;3.71;82.25;101631.25;5071539;28;20159;-64
2022/01/06 10:29:43;;;;;;;34.50;11.77;;;;;;;3.51;82.58;101629.75;5038128;28;20055;-64
2022/01/06 10:32:14;;;;;;;32.40;11.95;;;;;;;3.80;81.88;101618.47;5034587;28;20082;-63
2022/01/06 10:34:43;;;;;;;39.72;13.10;;;;;;;3.92;81.61;101616.06;5072487;28;20524;-64
2022/01/06 10:37:31;;;;;;;36.17;12.65;;;;;;;4.11;81.30;101618.44;5054997;28;20037;-63
2022/01/06 10:40:03;;;;;;;42.42;12.75;;;;;;;4.21;80.70;101614.31;5072024;28;20486;-64
2022/01/06 10:42:32;;;;;;;35.17;12.60;;;;;;;4.47;80.14;101609.28;5072093;28;20044;-64
2022/01/06 10:45:11;;;;;;;35.60;12.90;;;;;;;4.54;80.64;101616.69;5072008;28;20448;-65
2022/01/06 10:47:41;;;;;;;30.38;12.13;;;;;;;4.18;79.82;101614.50;5072567;28;20505;-64
2022/01/06 10:50:30;;;;;;;33.45;12.40;;;;;;;4.20;80.36;101623.13;5071443;28;20083;-64
2022/01/06 10:55:42;;;;;;;37.85;13.15;;;;;;;4.59;79.90;101613.81;5113219;27;20437;-64
2022/01/06 10:58:17;;;;;;;32.35;12.35;;;;;;;4.88;79.18;101619.03;5069847;28;20622;-64
2022/01/06 11:00:48;;;;;;;29.33;12.82;;;;;;;5.17;77.62;101609.31;5081372;28;20035;-64
2022/01/06 11:03:20;;;;;;;34.17;12.23;;;;;;;5.21;77.19;101610.81;5106881;28;20504;-66
2022/01/06 11:05:51;;;;;;;40.03;12.60;;;;;;;5.07;77.75;101602.94;5101768;28;20430;-64
2022/01/06 11:08:21;;;;;;;40.97;11.37;;;;;;;5.22;77.40;101604.63;5092149;28;20102;-64
2022/01/06 11:11:01;;;;;;;37.92;12.85;;;;;;;5.17;76.79;101609.31;5092619;28;20070;-64
2022/01/06 11:13:30;;;;;;;36.53;11.88;;;;;;;5.25;76.23;101611.47;5091387;28;20032;-64
2022/01/06 11:15:58;;;;;;;30.10;12.10;;;;;;;5.35;77.59;101618.66;5103595;28;20437;-65
2022/01/06 11:18:25;;;;;;;41.88;11.07;;;;;;;5.58;74.62;101618.94;5101056;28;20515;-64
2022/01/06 11:21:02;;;;;;;36.42;10.77;;;;;;;6.41;73.14;101605.53;5093802;28;20048;-65
2022/01/06 11:23:31;;;;;;;29.88;10.90;;;;;;;6.03;74.48;101611.63;5097509;28;20113;-64
2022/01/06 11:26:11;;;;;;;30.08;10.93;;;;;;;5.80;74.50;101615.75;5107118;28;20040;-64
2022/01/06 11:28:41;;;;;;;36.50;10.63;;;;;;;5.51;74.38;101615.88;5089086;28;20123;-64
2022/01/06 11:31:18;;;;;;;26.92;10.57;;;;;;;5.28;75.79;101617.38;5088185;28;20041;-64
2022/01/06 11:33:47;;;;;;;32.17;10.70;;;;;;;5.34;76.63;101624.03;5101609;28;20037;-65
2022/01/06 11:39:06;;;;;;;31.25;10.40;;;;;;;5.60;76.59;101627.59;5160495;27;20328;-64
2022/01/06 11:41:36;;;;;;;32.05;9.85;;;;;;;5.64;75.42;101623.84;5123456;27;20403;-64
2022/01/06 11:44:17;;;;;;;31.90;10.48;;;;;;;5.47;76.81;101622.28;5094809;28;20043;-64